Time;durP1;ratioP1;P1;durP2;ratioP2;P2;SDS_P1;SDS_P2;PMS_P1;PMS_P2;Temp;Humidity;BMP_temperature;BMP_pressure;BME280_temperature;BME280_humidity;BME280_pressure;Samples;Min_cycle;Max_cycle;Signal;HPM_P1;HPM_P2
2023/08/03 00:00:30;;;;;;;14.35;11.10;;;;;;;25.81;59.09;98708.97;5027381;28;20033;-86
2023/08/03 00:02:55;;;;;;;26.52;11.13;;;;;;;25.91;58.63;98705.72;5013526;28;20057;-85
2023/08/03 00:05:21;;;;;;;12.05;10.85;;;;;;;26.00;58.37;98704.25;5014715;28;20109;-86
2023/08/03 00:07:48;;;;;;;15.77;10.27;;;;;;;26.53;57.00;98705.75;5013335;28;20057;-86
2023/08/03 00:10:14;;;;;;;15.43;11.32;;;;;;;26.42;56.85;98703.28;5012512;28;20184;-86
2023/08/03 00:12:40;;;;;;;13.23;11.20;;;;;;;26.26;56.73;98699.31;5012526;28;20026;-86
2023/08/03 00:15:06;;;;;;;15.77;11.25;;;;;;;25.64;57.60;98683.28;5014699;28;20116;-86
2023/08/03 00:17:32;;;;;;;12.68;11.32;;;;;;;25.69;58.03;98701.97;5014419;28;20024;-86
2023/08/03 00:19:59;;;;;;;12.77;11.15;;;;;;;25.82;57.21;98699.88;5014370;28;20034;-86
2023/08/03 00:22:25;;;;;;;13.13;11.27;;;;;;;25.79;57.30;98695.09;5013456;28;20029;-86
2023/08/03 00:24:51;;;;;;;12.85;10.63;;;;;;;25.53;57.93;98700.03;5014271;28;20022;-86
2023/08/03 00:27:16;;;;;;;16.55;10.68;;;;;;;25.60;57.36;98694.88;5013300;28;20117;-86
2023/08/03 00:29:42;;;;;;;12.38;10.10;;;;;;;25.21;58.51;98703.38;5014150;28;20381;-86
2023/08/03 00:32:07;;;;;;;16.10;11.75;;;;;;;25.24;58.38;98704.53;5013223;28;20029;-85
2023/08/03 00:34:33;;;;;;;25.45;12.73;;;;;;;25.19;58.41;98685.06;5015558;28;20536;-86
2023/08/03 00:36:58;;;;;;;20.38;12.32;;;;;;;24.85;59.43;98687.25;5013881;28;20382;-87
2023/08/03 00:39:24;;;;;;;16.65;11.88;;;;;;;24.67;60.03;98682.03;5010741;28;20029;-85
2023/08/03 00:41:51;;;;;;;13.27;11.43;;;;;;;24.93;59.56;98699.28;5006257;28;20073;-86
2023/08/03 00:44:16;;;;;;;12.82;11.10;;;;;;;24.83;59.76;98695.50;4994423;28;20117;-86
2023/08/03 00:46:42;;;;;;;14.27;11.20;;;;;;;24.93;60.31;98711.56;4994216;28;20496;-85
2023/08/03 00:49:07;;;;;;;14.25;11.73;;;;;;;24.87;60.83;98709.69;5001266;28;20126;-86
2023/08/03 00:51:33;;;;;;;17.33;11.65;;;;;;;24.64;61.44;98700.09;5013032;28;20057;-86
2023/08/03 00:53:59;;;;;;;14.68;10.68;;;;;;;24.58;61.63;98688.41;5004002;28;20508;-85
2023/08/03 00:56:24;;;;;;;14.32;11.40;;;;;;;24.90;61.47;98708.78;5010525;28;20126;-85
2023/08/03 00:58:49;;;;;;;16.20;11.85;;;;;;;25.28;60.05;98704.41;5009945;28;20034;-84
2023/08/03 01:01:15;;;;;;;14.18;10.98;;;;;;;25.54;58.73;98698.78;5012825;28;20040;-85
2023/08/03 01:03:40;;;;;;;13.35;11.70;;;;;;;25.60;58.34;98699.78;5012722;28;20033;-86
2023/08/03 01:06:06;;;;;;;21.63;12.48;;;;;;;25.30;58.99;98704.78;5013671;28;20022;-86
2023/08/03 01:08:32;;;;;;;15.75;12.00;;;;;;;25.14;59.33;98706.44;5012449;28;20026;-86
2023/08/03 01:10:57;;;;;;;14.57;11.70;;;;;;;25.16;59.11;98711.72;5012457;28;20033;-86
2023/08/03 01:13:23;;;;;;;18.15;12.70;;;;;;;25.17;58.91;98701.88;5013550;28;20381;-86
2023/08/03 01:15:49;;;;;;;15.43;11.45;;;;;;;25.28;58.40;98702.34;5012571;28;20409;-86
2023/08/03 01:18:14;;;;;;;16.80;11.65;;;;;;;25.55;56.79;98715.47;5013375;28;20018;-86
2023/08/03 01:20:42;;;;;;;13.73;10.68;;;;;;;25.55;56.78;98717.53;5012471;28;20041;-86
2023/08/03 01:23:08;;;;;;;15.25;11.68;;;;;;;25.38;57.14;98721.25;5012959;28;20022;-86
2023/08/03 01:25:35;;;;;;;16.15;11.38;;;;;;;25.50;56.80;98719.69;5014081;28;20025;-86
2023/08/03 01:28:03;;;;;;;13.57;11.52;;;;;;;25.49;56.68;98711.59;5014279;28;20026;-86
2023/08/03 01:30:29;;;;;;;17.17;11.23;;;;;;;25.28;57.05;98696.63;5014241;28;20136;-84
2023/08/03 01:32:54;;;;;;;15.40;11.55;;;;;;;25.19;57.70;98713.66;5012160;28;20551;-86
2023/08/03 01:35:20;;;;;;;16.60;11.02;;;;;;;25.19;58.27;98730.81;5014153;28;20121;-86
2023/08/03 01:37:46;;;;;;;12.77;10.60;;;;;;;25.24;57.86;98713.13;5013545;28;20030;-85
2023/08/03 01:40:11;;;;;;;15.48;11.05;;;;;;;25.12;58.52;98717.53;5013447;28;20033;-86
2023/08/03 01:42:37;;;;;;;14.77;10.65;;;;;;;24.77;59.55;98734.47;5012373;28;20507;-85
2023/08/03 01:45:06;;;;;;;12.05;10.75;;;;;;;24.91;59.36;98727.53;5012743;28;20535;-85
2023/08/03 01:47:31;;;;;;;12.15;10.85;;;;;;;25.20;58.21;98712.41;5012239;28;20045;-85
2023/08/03 01:49:57;;;;;;;11.00;9.90;;;;;;;25.48;57.73;98735.72;5012212;28;20033;-85
2023/08/03 01:52:22;;;;;;;12.40;10.15;;;;;;;25.25;58.27;98711.84;5012323;28;20397;-86
2023/08/03 01:54:48;;;;;;;12.45;10.65;;;;;;;25.28;58.00;98730.16;5012932;28;20076;-85
2023/08/03 01:57:14;;;;;;;13.73;10.90;;;;;;;25.00;59.42;98736.28;5013048;28;20489;-86
2023/08/03 01:59:40;;;;;;;16.85;10.38;;;;;;;25.32;58.47;98737.38;5014030;28;20044;-85
2023/08/03 02:02:06;;;;;;;13.05;10.00;;;;;;;25.55;57.16;98721.19;5012185;28;20484;-85
2023/08/03 02:04:31;;;;;;;12.95;9.88;;;;;;;25.81;56.64;98726.94;5011878;28;20026;-85
2023/08/03 02:07:08;;;;;;;16.08;10.00;;;;;;;25.99;56.76;98732.06;5011851;28;20033;-85
2023/08/03 02:09:33;;;;;;;16.63;11.25;;;;;;;26.06;56.97;98736.75;5013915;28;20176;-85
2023/08/03 02:11:59;;;;;;;12.50;11.02;;;;;;;25.87;57.63;98724.28;5012927;28;20033;-85
2023/08/03 02:14:24;;;;;;;13.65;11.25;;;;;;;25.94;57.11;98738.41;5012445;28;20400;-86
2023/08/03 02:16:50;;;;;;;13.40;10.80;;;;;;;26.09;56.96;98738.72;5012520;28;20026;-86
2023/08/03 02:19:15;;;;;;;12.07;10.50;;;;;;;26.07;57.27;98747.78;5012599;28;20535;-85
2023/08/03 02:21:41;;;;;;;12.43;10.45;;;;;;;26.03;57.22;98731.97;5011642;28;20421;-85
2023/08/03 02:24:06;;;;;;;14.52;10.63;;;;;;;25.97;57.65;98742.41;5009199;28;20116;-86
2023/08/03 02:26:32;;;;;;;12.52;9.95;;;;;;;25.61;58.18;98727.16;5012271;28;20021;-85
2023/08/03 02:28:57;;;;;;;16.17;11.73;;;;;;;25.67;58.11;98730.25;5012263;28;20157;-85
2023/08/03 02:31:22;;;;;;;13.02;11.40;;;;;;;25.82;57.62;98733.47;5007778;28;20092;-85
2023/08/03 02:33:48;;;;;;;12.63;11.20;;;;;;;25.72;57.99;98730.47;5011764;28;20519;-86
2023/08/03 02:36:13;;;;;;;12.70;11.35;;;;;;;25.70;57.56;98730.16;5012319;28;20097;-86
2023/08/03 02:38:39;;;;;;;13.52;10.55;;;;;;;25.75;57.40;98740.22;5012219;28;20021;-86
2023/08/03 02:41:04;;;;;;;12.05;10.75;;;;;;;25.88;57.04;98749.63;5011332;28;20026;-85
2023/08/03 02:43:30;;;;;;;14.48;11.10;;;;;;;25.38;57.51;98752.75;5011687;28;20069;-85
2023/08/03 02:45:55;;;;;;;16.25;10.55;;;;;;;25.30;57.39;98757.06;5011667;28;20097;-85
2023/08/03 02:48:21;;;;;;;18.85;12.02;;;;;;;25.58;56.69;98762.44;5011895;28;20029;-85
2023/08/03 02:50:46;;;;;;;15.38;11.52;;;;;;;25.66;56.13;98758.09;5010881;28;20420;-85
2023/08/03 02:53:12;;;;;;;13.77;10.80;;;;;;;25.71;55.65;98762.47;4992170;28;20027;-85
2023/08/03 02:55:39;;;;;;;11.13;9.93;;;;;;;25.75;55.54;98763.91;5002347;28;20026;-85
2023/08/03 02:58:04;;;;;;;12.40;10.40;;;;;;;25.81;55.32;98767.03;5010688;28;20107;-86
2023/08/03 03:00:30;;;;;;;15.63;11.23;;;;;;;25.71;55.63;98766.09;5020870;28;20029;-87
2023/08/03 03:02:55;;;;;;;13.82;10.77;;;;;;;25.52;56.67;98770.78;5012233;28;20034;-88
2023/08/03 03:05:21;;;;;;;12.45;11.18;;;;;;;24.79;59.38;98772.78;5012046;28;20488;-87
2023/08/03 03:07:46;;;;;;;36.17;14.00;;;;;;;24.81;59.75;98763.78;5012060;28;20062;-88
2023/08/03 03:10:13;;;;;;;28.05;11.60;;;;;;;25.00;59.28;98767.75;5013043;28;20034;-87
2023/08/03 03:12:39;;;;;;;28.88;11.20;;;;;;;25.04;59.19;98756.19;5008044;28;20543;-87
2023/08/03 03:15:05;;;;;;;15.57;10.52;;;;;;;24.71;60.08;98779.13;5009961;28;20037;-84
2023/08/03 03:17:31;;;;;;;26.50;11.65;;;;;;;24.72;60.29;98766.44;5010442;28;20057;-84
2023/08/03 03:19:56;;;;;;;18.15;11.82;;;;;;;25.03;58.85;98781.13;5010808;28;20092;-85
2023/08/03 03:22:21;;;;;;;21.83;11.68;;;;;;;24.88;59.96;98775.00;5010516;28;20038;-86
2023/08/03 03:24:47;;;;;;;15.93;12.07;;;;;;;24.55;61.09;98769.31;5011264;28;20096;-86
2023/08/03 03:27:12;;;;;;;20.13;11.75;;;;;;;24.32;61.80;98778.88;5011285;28;20030;-86
2023/08/03 03:29:38;;;;;;;18.02;11.50;;;;;;;24.38;61.59;98792.19;5010908;28;20030;-86
2023/08/03 03:32:04;;;;;;;21.83;12.27;;;;;;;24.19;62.58;98793.06;5009558;28;20034;-86
2023/08/03 03:34:29;;;;;;;19.50;13.32;;;;;;;24.33;62.13;98797.63;5010832;28;20022;-86
2023/08/03 03:36:55;;;;;;;20.35;12.55;;;;;;;24.12;62.30;98774.03;5010592;28;20095;-86
2023/08/03 03:39:20;;;;;;;15.60;11.95;;;;;;;23.94;62.82;98785.88;5011081;28;20026;-86
2023/08/03 03:41:45;;;;;;;20.17;11.70;;;;;;;23.97;62.98;98785.78;5008326;28;20029;-86
2023/08/03 03:44:11;;;;;;;18.80;12.82;;;;;;;24.14;62.25;98793.59;5010036;28;20748;-86
2023/08/03 03:46:36;;;;;;;14.65;11.00;;;;;;;24.29;61.12;98782.63;5007683;28;20058;-87
2023/08/03 03:49:02;;;;;;;13.38;10.95;;;;;;;24.57;60.59;98791.72;5008910;28;20045;-87
2023/08/03 03:51:27;;;;;;;15.25;10.98;;;;;;;24.65;60.15;98781.72;5008510;28;20022;-87
2023/08/03 03:53:53;;;;;;;14.80;11.27;;;;;;;24.84;59.22;98777.16;5009109;28;20528;-86
2023/08/03 03:56:18;;;;;;;16.05;11.20;;;;;;;25.15;58.59;98801.66;5007912;28;20354;-86
2023/08/03 03:58:44;;;;;;;25.13;11.30;;;;;;;25.10;58.44;98785.84;5010090;28;20033;-86
2023/08/03 04:01:09;;;;;;;30.75;12.27;;;;;;;24.76;59.69;98804.31;5009348;28;20037;-86
2023/08/03 04:03:35;;;;;;;20.67;11.30;;;;;;;24.42;60.37;98791.28;5010072;28;20511;-87
2023/08/03 04:06:00;;;;;;;15.10;10.57;;;;;;;23.93;62.27;98796.50;5011183;28;20046;-88
2023/08/03 04:08:26;;;;;;;16.40;12.35;;;;;;;24.05;62.22;98803.59;5011882;28;20022;-88
2023/08/03 04:10:51;;;;;;;26.38;23.50;;;;;;;23.89;62.49;98795.78;5008447;28;20037;-88
2023/08/03 04:13:16;;;;;;;24.63;15.63;;;;;;;23.67;63.37;98801.97;5011226;28;20021;-88
2023/08/03 04:15:42;;;;;;;32.80;22.33;;;;;;;23.72;63.56;98792.09;5011169;28;20022;-88
2023/08/03 04:18:07;;;;;;;21.13;18.27;;;;;;;23.68;63.61;98797.06;5011051;28;20412;-88
2023/08/03 04:20:33;;;;;;;14.57;12.35;;;;;;;23.62;63.72;98799.63;5010264;28;20061;-89
2023/08/03 04:22:58;;;;;;;16.92;12.50;;;;;;;23.63;64.10;98792.66;5010974;28;20038;-88
2023/08/03 04:25:24;;;;;;;18.00;12.02;;;;;;;23.69;64.13;98802.31;5010290;28;20034;-88
2023/08/03 04:27:49;;;;;;;18.10;11.93;;;;;;;23.70;63.40;98778.25;5010789;28;20026;-89
2023/08/03 04:30:15;;;;;;;14.38;11.48;;;;;;;24.00;62.99;98794.69;5009092;28;20492;-90
2023/08/03 04:32:41;;;;;;;17.70;11.50;;;;;;;23.99;62.72;98802.47;5011203;28;20050;-90
2023/08/03 04:35:07;;;;;;;17.88;11.57;;;;;;;24.04;63.13;98801.19;5010360;28;20507;-89
2023/08/03 04:37:32;;;;;;;16.27;11.88;;;;;;;24.22;62.44;98800.75;5006428;28;20030;-89
2023/08/03 04:39:58;;;;;;;22.70;12.65;;;;;;;24.15;62.69;98807.44;5010748;28;20087;-88
2023/08/03 04:42:23;;;;;;;22.77;12.65;;;;;;;24.12;62.65;98802.59;5007311;28;20021;-88
2023/08/03 04:44:49;;;;;;;17.58;11.80;;;;;;;24.34;62.20;98810.66;5013223;28;20481;-89
2023/08/03 04:47:16;;;;;;;14.98;11.75;;;;;;;24.48;61.78;98821.72;5012682;28;20099;-89
2023/08/03 04:49:41;;;;;;;14.60;12.65;;;;;;;24.54;60.95;98824.84;5014082;28;20030;-88
2023/08/03 04:52:07;;;;;;;22.73;11.40;;;;;;;24.50;59.83;98810.69;5008658;28;20029;-86
2023/08/03 04:54:32;;;;;;;14.55;11.18;;;;;;;24.68;59.78;98826.56;5011058;28;20026;-90
2023/08/03 04:56:58;;;;;;;14.40;11.35;;;;;;;24.76;59.10;98810.03;5010080;28;20037;-88
2023/08/03 04:59:23;;;;;;;17.35;12.60;;;;;;;24.89;58.42;98808.06;5013412;28;20087;-88
2023/08/03 05:01:49;;;;;;;17.73;11.50;;;;;;;25.06;58.65;98833.78;5014268;28;20057;-89
2023/08/03 05:04:14;;;;;;;12.30;11.00;;;;;;;25.07;58.33;98823.94;5014090;28;20030;-88
2023/08/03 05:06:40;;;;;;;14.43;10.68;;;;;;;25.22;58.21;98844.38;5013150;28;20060;-88
2023/08/03 05:09:06;;;;;;;16.60;10.82;;;;;;;24.96;58.77;98824.22;5012434;28;20076;-88
2023/08/03 05:11:31;;;;;;;17.67;11.20;;;;;;;25.15;58.34;98842.50;5013993;28;20021;-89
2023/08/03 05:13:57;;;;;;;15.43;11.13;;;;;;;25.24;58.53;98847.59;5013985;28;20022;-88
2023/08/03 05:16:24;;;;;;;15.40;10.38;;;;;;;25.22;57.85;98830.09;5013889;28;20018;-89
2023/08/03 05:18:53;;;;;;;14.98;11.05;;;;;;;25.42;57.61;98831.97;5012978;28;20037;-88
2023/08/03 05:21:18;;;;;;;14.45;9.90;;;;;;;25.77;56.65;98857.97;5013831;28;20049;-88
2023/08/03 05:23:45;;;;;;;11.77;10.55;;;;;;;25.73;56.32;98860.16;5012929;28;20488;-88
2023/08/03 05:26:11;;;;;;;12.52;10.50;;;;;;;25.94;55.30;98867.28;5009233;28;20103;-88
2023/08/03 05:28:37;;;;;;;21.45;10.80;;;;;;;26.07;54.82;98856.66;5010528;28;20030;-89
2023/08/03 05:31:02;;;;;;;14.18;10.65;;;;;;;26.15;54.42;98850.69;5014644;28;20052;-88
2023/08/03 05:33:28;;;;;;;18.80;10.45;;;;;;;26.14;54.43;98852.75;5012799;28;20037;-87
2023/08/03 05:35:53;;;;;;;26.08;12.05;;;;;;;26.53;54.10;98851.97;5012829;28;20060;-88
2023/08/03 05:38:19;;;;;;;18.52;10.25;;;;;;;26.54;53.04;98857.25;5008224;28;20042;-86
2023/08/03 05:40:45;;;;;;;12.10;9.70;;;;;;;26.44;52.95;98850.63;5009908;28;20040;-87
2023/08/03 05:43:12;;;;;;;19.80;11.32;;;;;;;26.46;53.63;98850.13;5019125;28;20061;-87
2023/08/03 05:45:48;;;;;;;13.10;10.85;;;;;;;26.68;52.99;98855.97;5002948;28;20083;-88
2023/08/03 05:48:18;;;;;;;14.57;10.88;;;;;;;26.96;52.63;98858.34;5008696;28;20103;-88
2023/08/03 05:50:44;;;;;;;;;;;;;;;27.31;51.57;98855.47;5009647;28;20025;-88
2023/08/03 05:53:10;;;;;;;18.70;10.30;;;;;;;27.24;51.78;98852.88;5007423;28;20307;-87
2023/08/03 05:55:37;;;;;;;13.02;9.95;;;;;;;27.37;51.35;98853.63;5009793;28;20049;-86
2023/08/03 05:58:03;;;;;;;12.10;10.65;;;;;;;27.69;50.43;98859.47;5009597;28;20088;-86
2023/08/03 06:00:29;;;;;;;16.13;9.70;;;;;;;27.67;50.43;98853.38;5003073;28;20018;-87
2023/08/03 06:02:58;;;;;;;24.15;9.88;;;;;;;27.51;50.63;98843.66;5008432;28;20030;-87
2023/08/03 06:05:43;;;;;;;16.67;9.13;;;;;;;27.49;50.47;98851.94;5008315;28;20203;-87
2023/08/03 06:08:29;;;;;;;15.00;9.73;;;;;;;27.88;49.55;98852.56;5011443;28;20076;-88
2023/08/03 06:10:57;;;;;;;19.20;10.07;;;;;;;27.93;49.28;98853.22;5009454;28;20436;-87
2023/08/03 06:13:26;;;;;;;10.63;9.52;;;;;;;27.98;49.05;98861.22;5011884;28;20079;-87
2023/08/03 06:15:52;;;;;;;12.75;8.85;;;;;;;28.12;48.78;98834.81;5010768;28;20055;-87
2023/08/03 06:18:19;;;;;;;15.60;9.27;;;;;;;28.42;48.04;98849.66;5010286;28;20148;-87
2023/08/03 06:20:50;;;;;;;15.32;10.70;;;;;;;28.29;47.54;98835.38;5009877;28;20033;-87
2023/08/03 06:23:24;;;;;;;11.38;10.13;;;;;;;28.51;47.25;98848.88;5011179;28;20041;-87
2023/08/03 06:25:52;;;;;;;10.48;9.25;;;;;;;28.15;48.23;98853.97;5011469;28;20040;-87
2023/08/03 06:28:22;;;;;;;10.90;9.85;;;;;;;28.05;48.84;98831.41;5012004;28;20030;-87
2023/08/03 06:30:49;;;;;;;10.82;9.73;;;;;;;28.35;47.91;98858.56;5010835;28;20114;-88
2023/08/03 06:33:23;;;;;;;12.63;9.95;;;;;;;28.40;47.57;98849.31;5011506;28;20113;-87
2023/08/03 06:35:52;;;;;;;10.63;9.52;;;;;;;28.60;47.69;98845.25;5015753;28;20028;-84
2023/08/03 06:38:21;;;;;;;15.40;10.05;;;;;;;28.79;47.06;98848.97;5011254;28;20033;-85
2023/08/03 06:40:48;;;;;;;10.98;9.80;;;;;;;28.71;46.46;98836.94;5010317;28;20030;-84
2023/08/03 06:43:15;;;;;;;15.95;10.27;;;;;;;28.68;47.02;98851.50;5010099;28;20021;-85
2023/08/03 06:45:41;;;;;;;15.63;9.27;;;;;;;28.99;46.20;98850.59;5011008;28;20420;-85
2023/08/03 06:48:08;;;;;;;17.65;10.45;;;;;;;29.20;46.08;98846.00;5010622;28;20041;-85
2023/08/03 06:50:34;;;;;;;20.02;10.55;;;;;;;29.21;45.77;98855.44;5010899;28;20034;-83
2023/08/03 06:53:03;;;;;;;17.65;11.10;;;;;;;29.36;45.66;98849.84;5010156;28;20026;-84
2023/08/03 06:55:30;;;;;;;11.05;9.95;;;;;;;29.36;45.58;98849.84;5009496;28;20393;-86
2023/08/03 06:57:55;;;;;;;22.55;10.65;;;;;;;29.69;46.16;98849.19;5004508;28;20042;-85
2023/08/03 07:00:22;;;;;;;23.60;10.30;;;;;;;29.76;44.82;98853.84;5009374;28;20419;-85
2023/08/03 07:02:48;;;;;;;14.07;10.40;;;;;;;29.77;45.69;98853.34;5008137;28;20037;-86
2023/08/03 07:05:14;;;;;;;18.90;10.73;;;;;;;29.88;45.41;98814.56;5010136;28;20112;-87
2023/08/03 07:07:40;;;;;;;15.38;10.25;;;;;;;29.96;43.76;98845.44;5003914;28;20401;-87
2023/08/03 07:10:06;;;;;;;11.15;9.88;;;;;;;29.97;43.78;98854.91;5007180;28;20511;-87
2023/08/03 07:12:35;;;;;;;10.38;9.10;;;;;;;30.04;43.35;98840.16;5009118;28;20037;-88
2023/08/03 07:15:01;;;;;;;19.53;10.27;;;;;;;30.34;43.61;98846.16;5008374;28;20022;-87
2023/08/03 07:17:26;;;;;;;38.63;11.48;;;;;;;30.22;43.78;98847.16;5006450;28;20530;-87
2023/08/03 07:19:52;;;;;;;11.82;10.60;;;;;;;30.20;43.24;98852.63;5009674;28;20030;-88
2023/08/03 07:22:21;;;;;;;14.73;9.50;;;;;;;30.09;43.95;98856.81;5006631;28;20088;-87
2023/08/03 07:24:47;;;;;;;25.02;10.93;;;;;;;30.30;43.61;98857.06;5007219;28;20021;-88
2023/08/03 07:27:14;;;;;;;16.30;9.73;;;;;;;30.30;42.86;98841.84;5007913;28;20041;-88
2023/08/03 07:29:39;;;;;;;19.67;11.10;;;;;;;30.58;42.40;98847.47;5008019;28;20022;-87
2023/08/03 07:32:05;;;;;;;12.23;11.02;;;;;;;30.34;42.22;98834.59;5002173;28;20031;-87
2023/08/03 07:34:31;;;;;;;10.88;9.75;;;;;;;30.40;42.36;98832.63;5025867;28;20104;-88
2023/08/03 07:36:57;;;;;;;11.73;10.00;;;;;;;31.04;42.24;98849.31;5006328;28;21093;-89
2023/08/03 07:39:23;;;;;;;11.57;10.32;;;;;;;31.04;40.91;98824.09;5006549;28;20046;-89
2023/08/03 07:41:49;;;;;;;17.52;10.02;;;;;;;31.03;41.84;98842.72;5006998;28;20083;-89
2023/08/03 07:44:18;;;;;;;11.40;10.13;;;;;;;31.03;41.67;98842.72;5010942;28;20064;-88
2023/08/03 07:46:46;;;;;;;14.80;11.07;;;;;;;31.03;42.12;98836.94;5009151;28;20057;-89
2023/08/03 07:49:12;;;;;;;13.13;10.32;;;;;;;31.05;41.10;98840.13;5009318;28;20030;-89
2023/08/03 07:51:38;;;;;;;13.55;10.52;;;;;;;31.42;41.79;98836.19;5008157;28;20041;-89
2023/08/03 07:54:03;;;;;;;14.57;10.68;;;;;;;31.74;41.43;98838.59;5010257;28;20018;-90
2023/08/03 07:56:29;;;;;;;16.30;10.85;;;;;;;32.01;39.92;98834.66;5007806;28;20041;-90
2023/08/03 07:58:54;;;;;;;13.10;10.57;;;;;;;32.12;39.78;98833.25;5008392;28;20037;-89
2023/08/03 08:01:20;;;;;;;16.85;10.85;;;;;;;32.34;41.23;98841.47;5006624;28;20018;-90
2023/08/03 08:03:47;;;;;;;11.43;10.13;;;;;;;32.63;40.10;98840.63;5010094;28;20074;-90
2023/08/03 08:06:17;;;;;;;13.55;11.23;;;;;;;32.67;40.30;98840.44;5011402;28;20022;-90
2023/08/03 08:08:44;;;;;;;10.73;9.63;;;;;;;32.57;39.75;98825.28;5009635;28;20080;-88
2023/08/03 08:11:11;;;;;;;12.88;11.15;;;;;;;32.24;38.70;98837.09;5005024;28;20022;-90
2023/08/03 08:13:36;;;;;;;17.20;10.30;;;;;;;31.57;40.10;98820.94;5005943;28;20408;-88
2023/08/03 08:16:08;;;;;;;15.48;11.32;;;;;;;32.32;39.54;98833.28;5010569;28;20033;-88
2023/08/03 08:18:34;;;;;;;11.68;9.43;;;;;;;32.77;39.59;98839.00;5014572;28;20413;-89
2023/08/03 08:21:02;;;;;;;13.70;10.15;;;;;;;33.07;37.82;98822.81;5015196;28;20401;-88
2023/08/03 08:23:28;;;;;;;11.38;10.30;;;;;;;32.80;39.50;98825.59;5015379;28;20030;-87
2023/08/03 08:25:54;;;;;;;11.60;9.70;;;;;;;33.04;37.29;98827.50;5013535;28;20495;-88
2023/08/03 08:28:20;;;;;;;10.10;9.10;;;;;;;32.99;38.29;98813.78;5013189;28;20022;-87
2023/08/03 08:30:46;;;;;;;11.25;10.23;;;;;;;33.32;36.78;98830.75;5014058;28;20045;-89
2023/08/03 08:33:14;;;;;;;10.73;9.48;;;;;;;33.44;37.88;98825.88;5013049;28;20397;-88
2023/08/03 08:35:40;;;;;;;27.38;10.55;;;;;;;33.83;37.77;98829.72;5013046;28;20033;-87
2023/08/03 08:38:05;;;;;;;11.57;9.55;;;;;;;34.01;36.40;98822.78;5011064;28;20021;-90
2023/08/03 08:40:44;;;;;;;15.15;10.00;;;;;;;34.06;35.66;98807.53;5012670;28;20493;-89
2023/08/03 08:43:09;;;;;;;10.98;9.38;;;;;;;34.14;35.18;98799.16;5010438;28;20036;-88
2023/08/03 08:45:36;;;;;;;11.45;10.35;;;;;;;34.21;35.47;98789.19;5010357;28;20512;-88
2023/08/03 08:48:03;;;;;;;12.82;9.68;;;;;;;34.42;35.49;98813.84;5011507;28;20160;-90
2023/08/03 08:50:30;;;;;;;12.18;9.93;;;;;;;34.49;36.11;98821.28;5012404;28;20176;-88
2023/08/03 08:52:58;;;;;;;14.75;11.35;;;;;;;34.48;36.39;98795.69;5012930;28;20045;-89
2023/08/03 08:55:31;;;;;;;10.77;9.63;;;;;;;34.55;36.37;98813.47;5020975;28;20022;-89
2023/08/03 08:57:57;;;;;;;13.40;9.88;;;;;;;34.52;36.43;98808.69;5021195;28;20059;-88
2023/08/03 09:00:25;;;;;;;10.57;9.57;;;;;;;34.42;35.84;98813.09;5028287;28;20025;-88
2023/08/03 09:03:00;;;;;;;14.10;9.80;;;;;;;34.44;36.16;98808.31;5014029;28;20083;-88
2023/08/03 09:05:27;;;;;;;10.63;9.57;;;;;;;34.48;36.13;98798.59;5012989;28;20120;-89
2023/08/03 09:08:00;;;;;;;11.65;10.15;;;;;;;34.70;36.25;98804.56;5017350;28;20064;-89
2023/08/03 09:10:26;;;;;;;14.90;11.20;;;;;;;34.82;35.89;98805.41;5004553;28;20073;-88
2023/08/03 09:12:51;;;;;;;11.68;10.40;;;;;;;34.64;36.90;98791.34;5018734;28;20025;-89
2023/08/03 09:15:17;;;;;;;12.20;9.23;;;;;;;34.88;35.80;98796.72;5015481;28;20026;-88
2023/08/03 09:17:46;;;;;;;11.40;9.82;;;;;;;35.24;34.59;98793.47;5012127;28;20128;-89
2023/08/03 09:20:28;;;;;;;;;;;;;;;35.20;35.10;98799.53;5012423;28;20033;-88
2023/08/03 09:22:55;;;;;;;27.45;10.70;;;;;;;35.29;35.46;98786.88;5011398;28;19987;-89
2023/08/03 09:25:21;;;;;;;12.00;10.73;;;;;;;35.31;34.29;98768.91;5014354;28;20070;-88
2023/08/03 09:27:49;;;;;;;13.70;9.88;;;;;;;35.49;35.16;98787.97;5010648;28;20140;-88
2023/08/03 09:30:15;;;;;;;9.82;9.02;;;;;;;35.59;34.09;98774.00;5021289;28;20029;-89
2023/08/03 09:32:41;;;;;;;12.05;10.10;;;;;;;35.81;33.25;98784.84;5011586;28;20107;-88
2023/08/03 09:35:20;;;;;;;10.27;9.05;;;;;;;36.12;32.86;98777.22;5013142;28;20480;-88
2023/08/03 09:37:47;;;;;;;10.00;9.10;;;;;;;36.12;33.24;98771.38;5005660;28;20397;-88
2023/08/03 09:40:13;;;;;;;13.52;10.23;;;;;;;36.19;33.30;98770.06;5025265;28;20030;-88
2023/08/03 09:42:40;;;;;;;14.45;9.38;;;;;;;36.36;33.37;98764.22;5013840;28;20425;-88
2023/08/03 09:45:08;;;;;;;19.38;10.52;;;;;;;36.27;32.49;98771.13;5013104;28;20121;-87
2023/08/03 09:47:38;;;;;;;16.38;10.63;;;;;;;36.09;32.76;98764.50;5008580;28;20054;-87
2023/08/03 09:50:03;;;;;;;12.10;9.23;;;;;;;36.10;32.57;98762.41;5006584;28;20124;-87
2023/08/03 09:52:31;;;;;;;11.73;10.05;;;;;;;36.13;32.44;98763.44;5014553;28;20034;-88
2023/08/03 09:55:20;;;;;;;10.25;8.88;;;;;;;36.13;33.02;98760.53;5018154;28;20125;-89
2023/08/03 09:57:59;;;;;;;;;;;;;;;36.31;32.01;98759.19;5008519;28;20036;-88
2023/08/03 10:00:25;;;;;;;10.30;9.30;;;;;;;36.06;32.97;98748.13;5012213;28;19918;-89
2023/08/03 10:03:00;;;;;;;10.27;9.20;;;;;;;36.11;33.16;98749.44;5012227;28;20053;-88
2023/08/03 10:05:27;;;;;;;10.68;9.65;;;;;;;36.30;32.88;98749.66;5008063;28;20093;-88
2023/08/03 10:08:17;;;;;;;11.65;9.95;;;;;;;36.47;31.70;98743.81;5012138;28;20112;-89
2023/08/03 10:10:48;;;;;;;10.18;9.27;;;;;;;36.50;31.63;98733.19;5005047;28;20025;-88
2023/08/03 10:13:14;;;;;;;10.32;9.32;;;;;;;36.59;31.82;98749.63;5012080;28;20025;-87
2023/08/03 10:15:41;;;;;;;10.82;9.82;;;;;;;36.79;31.13;98733.91;5012002;28;20505;-88
2023/08/03 10:18:07;;;;;;;10.38;9.40;;;;;;;36.72;32.33;98734.47;5012102;28;20029;-88
2023/08/03 10:20:38;;;;;;;11.07;9.98;;;;;;;36.80;31.23;98729.69;5013470;28;20113;-90
2023/08/03 10:23:09;;;;;;;11.30;10.25;;;;;;;37.08;32.33;98725.84;5012336;28;20033;-89
2023/08/03 10:25:59;;;;;;;16.85;10.52;;;;;;;37.13;30.67;98722.13;5012094;28;20072;-88
2023/08/03 10:28:40;;;;;;;12.25;10.40;;;;;;;37.41;30.86;98723.25;5008994;28;20081;-89
2023/08/03 10:31:32;;;;;;;11.60;10.50;;;;;;;36.93;31.21;98729.09;5027025;28;20076;-89
2023/08/03 10:33:57;;;;;;;12.23;10.88;;;;;;;37.09;31.56;98718.69;5007828;28;20037;-90
2023/08/03 10:36:33;;;;;;;12.98;10.75;;;;;;;37.20;30.84;98709.88;5014922;28;20036;-90
2023/08/03 10:39:11;;;;;;;14.48;11.18;;;;;;;37.31;31.03;98702.38;5017141;28;20472;-90
2023/08/03 10:41:45;;;;;;;14.43;10.65;;;;;;;37.16;29.79;98699.81;5010699;28;20037;-91
2023/08/03 10:44:13;;;;;;;11.43;9.93;;;;;;;37.29;29.95;98705.06;5011966;28;20092;-90
2023/08/03 10:46:53;;;;;;;14.13;10.65;;;;;;;37.48;29.17;98699.34;5011323;28;20041;-91
2023/08/03 10:49:18;;;;;;;12.70;11.20;;;;;;;37.43;30.10;98697.28;5015772;28;20105;-91
2023/08/03 10:51:44;;;;;;;13.23;11.30;;;;;;;37.47;30.27;98686.91;5010622;28;20091;-90
2023/08/03 10:54:10;;;;;;;11.52;10.38;;;;;;;37.58;29.20;98677.28;5012303;28;20021;-90
2023/08/03 10:56:35;;;;;;;10.93;9.93;;;;;;;37.62;30.13;98682.84;5013717;28;20518;-91
2023/08/03 10:59:02;;;;;;;10.60;9.50;;;;;;;37.57;29.71;98661.13;5013824;28;20033;-90
2023/08/03 11:01:28;;;;;;;9.65;8.85;;;;;;;37.76;29.26;98687.47;5011663;28;20064;-91
2023/08/03 11:03:54;;;;;;;12.13;10.85;;;;;;;37.72;30.06;98684.06;5012040;28;20050;-90
2023/08/03 11:06:21;;;;;;;11.48;10.38;;;;;;;37.61;30.32;98675.41;5011521;28;20021;-91
2023/08/03 11:08:47;;;;;;;12.18;10.50;;;;;;;37.87;29.74;98671.19;5011532;28;20100;-91
2023/08/03 11:11:21;;;;;;;9.55;8.75;;;;;;;37.86;29.26;98679.16;5011048;28;20504;-90
2023/08/03 11:13:48;;;;;;;11.43;9.18;;;;;;;38.00;29.52;98655.97;5010632;28;20412;-90
2023/08/03 11:16:20;;;;;;;11.35;8.88;;;;;;;38.19;29.84;98656.00;5007177;28;20082;-90
2023/08/03 11:18:46;;;;;;;14.43;10.07;;;;;;;38.11;29.90;98679.19;5007465;28;20502;-91